sensor_id;sensor_type;location;lat;lon;timestamp;P1;durP1;ratioP1;P2;durP2;ratioP2
76574;SDS011;65439;50.948;6.988;2023-02-03T00:00:32;11.95;;;6.65;;
76574;SDS011;65439;50.948;6.988;2023-02-03T00:02:57;12.55;;;6.53;;
76574;SDS011;65439;50.948;6.988;2023-02-03T00:05:23;11.87;;;5.80;;
76574;SDS011;65439;50.948;6.988;2023-02-03T00:07:48;13.40;;;6.68;;
76574;SDS011;65439;50.948;6.988;2023-02-03T00:10:13;12.95;;;5.97;;
76574;SDS011;65439;50.948;6.988;2023-02-03T00:12:39;11.68;;;6.05;;
76574;SDS011;65439;50.948;6.988;2023-02-03T00:15:04;16.20;;;6.43;;
76574;SDS011;65439;50.948;6.988;2023-02-03T00:17:30;10.85;;;6.32;;
76574;SDS011;65439;50.948;6.988;2023-02-03T00:19:55;13.17;;;5.97;;
76574;SDS011;65439;50.948;6.988;2023-02-03T00:22:21;10.90;;;5.80;;
76574;SDS011;65439;50.948;6.988;2023-02-03T00:24:46;10.23;;;5.70;;
76574;SDS011;65439;50.948;6.988;2023-02-03T00:27:11;8.73;;;5.73;;
76574;SDS011;65439;50.948;6.988;2023-02-03T00:29:38;8.32;;;5.28;;
76574;SDS011;65439;50.948;6.988;2023-02-03T00:32:03;11.53;;;5.50;;
76574;SDS011;65439;50.948;6.988;2023-02-03T00:34:29;12.35;;;5.13;;
76574;SDS011;65439;50.948;6.988;2023-02-03T00:36:55;10.70;;;5.38;;
76574;SDS011;65439;50.948;6.988;2023-02-03T00:39:20;12.30;;;6.00;;
76574;SDS011;65439;50.948;6.988;2023-02-03T00:41:46;7.45;;;5.03;;
76574;SDS011;65439;50.948;6.988;2023-02-03T00:44:11;14.20;;;5.47;;
76574;SDS011;65439;50.948;6.988;2023-02-03T00:46:38;11.93;;;6.00;;
76574;SDS011;65439;50.948;6.988;2023-02-03T00:49:03;9.85;;;5.10;;
76574;SDS011;65439;50.948;6.988;2023-02-03T00:51:29;7.25;;;4.78;;
76574;SDS011;65439;50.948;6.988;2023-02-03T00:53:54;9.32;;;4.35;;
76574;SDS011;65439;50.948;6.988;2023-02-03T00:56:19;7.38;;;4.57;;
76574;SDS011;65439;50.948;6.988;2023-02-03T00:58:45;10.23;;;4.27;;
76574;SDS011;65439;50.948;6.988;2023-02-03T01:01:10;9.65;;;4.22;;
76574;SDS011;65439;50.948;6.988;2023-02-03T01:03:36;9.55;;;3.75;;
76574;SDS011;65439;50.948;6.988;2023-02-03T01:06:09;8.80;;;4.78;;
76574;SDS011;65439;50.948;6.988;2023-02-03T01:08:35;7.47;;;4.32;;
76574;SDS011;65439;50.948;6.988;2023-02-03T01:11:07;9.67;;;3.77;;
76574;SDS011;65439;50.948;6.988;2023-02-03T01:13:34;8.95;;;3.55;;
76574;SDS011;65439;50.948;6.988;2023-02-03T01:16:00;6.00;;;3.65;;
76574;SDS011;65439;50.948;6.988;2023-02-03T01:18:25;16.38;;;5.80;;
76574;SDS011;65439;50.948;6.988;2023-02-03T01:20:51;8.53;;;4.00;;
76574;SDS011;65439;50.948;6.988;2023-02-03T01:23:16;7.40;;;3.33;;
76574;SDS011;65439;50.948;6.988;2023-02-03T01:25:41;9.17;;;3.77;;
76574;SDS011;65439;50.948;6.988;2023-02-03T01:28:06;10.67;;;4.53;;
76574;SDS011;65439;50.948;6.988;2023-02-03T01:30:32;17.27;;;4.60;;
76574;SDS011;65439;50.948;6.988;2023-02-03T01:32:57;14.10;;;4.40;;
76574;SDS011;65439;50.948;6.988;2023-02-03T01:35:22;9.00;;;4.17;;
76574;SDS011;65439;50.948;6.988;2023-02-03T01:37:48;7.37;;;5.23;;
76574;SDS011;65439;50.948;6.988;2023-02-03T01:40:13;13.90;;;3.93;;
76574;SDS011;65439;50.948;6.988;2023-02-03T01:42:38;5.20;;;3.80;;
76574;SDS011;65439;50.948;6.988;2023-02-03T01:45:04;10.60;;;3.80;;
76574;SDS011;65439;50.948;6.988;2023-02-03T01:47:30;6.13;;;3.58;;
76574;SDS011;65439;50.948;6.988;2023-02-03T01:50:03;5.53;;;3.58;;
76574;SDS011;65439;50.948;6.988;2023-02-03T01:52:33;6.18;;;3.70;;
76574;SDS011;65439;50.948;6.988;2023-02-03T01:54:59;9.57;;;4.10;;
76574;SDS011;65439;50.948;6.988;2023-02-03T01:57:37;8.90;;;4.20;;
76574;SDS011;65439;50.948;6.988;2023-02-03T02:00:05;8.18;;;3.75;;
76574;SDS011;65439;50.948;6.988;2023-02-03T02:02:32;5.35;;;3.67;;
76574;SDS011;65439;50.948;6.988;2023-02-03T02:05:02;10.70;;;4.78;;
76574;SDS011;65439;50.948;6.988;2023-02-03T02:07:32;10.95;;;4.00;;
76574;SDS011;65439;50.948;6.988;2023-02-03T02:09:58;11.00;;;3.95;;
76574;SDS011;65439;50.948;6.988;2023-02-03T02:12:23;6.93;;;3.38;;
76574;SDS011;65439;50.948;6.988;2023-02-03T02:14:49;6.18;;;3.35;;
76574;SDS011;65439;50.948;6.988;2023-02-03T02:17:34;6.90;;;3.93;;
76574;SDS011;65439;50.948;6.988;2023-02-03T02:23:10;8.98;;;4.45;;
76574;SDS011;65439;50.948;6.988;2023-02-03T02:28:40;6.55;;;3.10;;
76574;SDS011;65439;50.948;6.988;2023-02-03T02:34:13;6.45;;;2.63;;
76574;SDS011;65439;50.948;6.988;2023-02-03T02:36:52;7.82;;;3.60;;
76574;SDS011;65439;50.948;6.988;2023-02-03T02:42:02;11.00;;;3.70;;
76574;SDS011;65439;50.948;6.988;2023-02-03T02:44:32;5.90;;;2.92;;
76574;SDS011;65439;50.948;6.988;2023-02-03T02:47:01;9.35;;;3.47;;
76574;SDS011;65439;50.948;6.988;2023-02-03T02:49:51;9.55;;;3.03;;
76574;SDS011;65439;50.948;6.988;2023-02-03T02:52:20;9.35;;;3.45;;
76574;SDS011;65439;50.948;6.988;2023-02-03T02:54:50;5.35;;;3.60;;
76574;SDS011;65439;50.948;6.988;2023-02-03T02:57:17;6.18;;;3.55;;
76574;SDS011;65439;50.948;6.988;2023-02-03T02:59:44;4.32;;;3.05;;
76574;SDS011;65439;50.948;6.988;2023-02-03T03:04:36;8.27;;;3.67;;
76574;SDS011;65439;50.948;6.988;2023-02-03T03:07:03;6.65;;;3.33;;
76574;SDS011;65439;50.948;6.988;2023-02-03T03:09:49;7.60;;;3.50;;
76574;SDS011;65439;50.948;6.988;2023-02-03T03:12:21;7.82;;;3.53;;
76574;SDS011;65439;50.948;6.988;2023-02-03T03:14:53;6.93;;;3.30;;
76574;SDS011;65439;50.948;6.988;2023-02-03T03:17:22;4.97;;;3.28;;
76574;SDS011;65439;50.948;6.988;2023-02-03T03:19:54;12.50;;;4.20;;
76574;SDS011;65439;50.948;6.988;2023-02-03T03:22:23;5.65;;;3.90;;
76574;SDS011;65439;50.948;6.988;2023-02-03T03:25:02;13.40;;;3.75;;
76574;SDS011;65439;50.948;6.988;2023-02-03T03:27:32;5.60;;;3.33;;
76574;SDS011;65439;50.948;6.988;2023-02-03T03:30:02;5.60;;;3.05;;
76574;SDS011;65439;50.948;6.988;2023-02-03T03:32:30;9.25;;;3.03;;
76574;SDS011;65439;50.948;6.988;2023-02-03T03:34:57;7.18;;;3.03;;
76574;SDS011;65439;50.948;6.988;2023-02-03T03:37:24;7.35;;;3.20;;
76574;SDS011;65439;50.948;6.988;2023-02-03T03:40:00;9.35;;;3.50;;
76574;SDS011;65439;50.948;6.988;2023-02-03T03:45:22;11.95;;;3.30;;
76574;SDS011;65439;50.948;6.988;2023-02-03T03:47:56;10.48;;;4.18;;
76574;SDS011;65439;50.948;6.988;2023-02-03T03:50:29;8.52;;;3.50;;
76574;SDS011;65439;50.948;6.988;2023-02-03T03:52:57;5.45;;;3.45;;
76574;SDS011;65439;50.948;6.988;2023-02-03T03:55:24;7.50;;;3.58;;
76574;SDS011;65439;50.948;6.988;2023-02-03T03:57:58;9.75;;;4.30;;
76574;SDS011;65439;50.948;6.988;2023-02-03T04:00:27;8.80;;;4.00;;
76574;SDS011;65439;50.948;6.988;2023-02-03T04:02:55;9.38;;;3.55;;
76574;SDS011;65439;50.948;6.988;2023-02-03T04:05:22;4.30;;;2.95;;
76574;SDS011;65439;50.948;6.988;2023-02-03T04:07:48;6.00;;;4.20;;
76574;SDS011;65439;50.948;6.988;2023-02-03T04:13:08;6.90;;;3.83;;
76574;SDS011;65439;50.948;6.988;2023-02-03T04:15:34;4.75;;;3.47;;
76574;SDS011;65439;50.948;6.988;2023-02-03T04:18:00;10.43;;;3.80;;
76574;SDS011;65439;50.948;6.988;2023-02-03T04:20:29;6.10;;;3.70;;
76574;SDS011;65439;50.948;6.988;2023-02-03T04:22:55;8.95;;;3.72;;
76574;SDS011;65439;50.948;6.988;2023-02-03T04:25:20;10.60;;;3.25;;
76574;SDS011;65439;50.948;6.988;2023-02-03T04:27:46;8.85;;;3.67;;
76574;SDS011;65439;50.948;6.988;2023-02-03T04:30:11;5.17;;;3.20;;
76574;SDS011;65439;50.948;6.988;2023-02-03T04:32:37;6.63;;;4.10;;
76574;SDS011;65439;50.948;6.988;2023-02-03T04:35:03;6.93;;;3.63;;
76574;SDS011;65439;50.948;6.988;2023-02-03T04:37:29;10.23;;;3.92;;
76574;SDS011;65439;50.948;6.988;2023-02-03T04:39:55;6.67;;;3.53;;
76574;SDS011;65439;50.948;6.988;2023-02-03T04:42:20;6.47;;;2.78;;
76574;SDS011;65439;50.948;6.988;2023-02-03T04:44:46;9.45;;;4.03;;
76574;SDS011;65439;50.948;6.988;2023-02-03T04:47:12;9.27;;;3.08;;
76574;SDS011;65439;50.948;6.988;2023-02-03T04:49:37;6.18;;;3.28;;
76574;SDS011;65439;50.948;6.988;2023-02-03T04:52:03;5.32;;;3.05;;
76574;SDS011;65439;50.948;6.988;2023-02-03T04:54:28;7.45;;;3.13;;
76574;SDS011;65439;50.948;6.988;2023-02-03T04:56:54;5.78;;;3.35;;
76574;SDS011;65439;50.948;6.988;2023-02-03T04:59:19;10.77;;;3.43;;
76574;SDS011;65439;50.948;6.988;2023-02-03T05:01:44;6.70;;;3.30;;
76574;SDS011;65439;50.948;6.988;2023-02-03T05:04:10;11.60;;;3.80;;
76574;SDS011;65439;50.948;6.988;2023-02-03T05:06:35;14.07;;;4.30;;
76574;SDS011;65439;50.948;6.988;2023-02-03T05:09:00;5.90;;;3.15;;
76574;SDS011;65439;50.948;6.988;2023-02-03T05:11:26;4.03;;;2.87;;
76574;SDS011;65439;50.948;6.988;2023-02-03T05:13:52;9.25;;;3.53;;
76574;SDS011;65439;50.948;6.988;2023-02-03T05:16:18;6.82;;;3.25;;
76574;SDS011;65439;50.948;6.988;2023-02-03T05:18:43;9.13;;;3.50;;
76574;SDS011;65439;50.948;6.988;2023-02-03T05:21:08;7.40;;;3.15;;
76574;SDS011;65439;50.948;6.988;2023-02-03T05:23:34;9.87;;;3.83;;
76574;SDS011;65439;50.948;6.988;2023-02-03T05:25:59;12.43;;;3.27;;
76574;SDS011;65439;50.948;6.988;2023-02-03T05:28:24;7.67;;;3.23;;
76574;SDS011;65439;50.948;6.988;2023-02-03T05:30:50;7.72;;;3.15;;
76574;SDS011;65439;50.948;6.988;2023-02-03T05:33:15;5.00;;;3.20;;
76574;SDS011;65439;50.948;6.988;2023-02-03T05:35:40;7.97;;;3.23;;
76574;SDS011;65439;50.948;6.988;2023-02-03T05:38:06;9.23;;;3.03;;
76574;SDS011;65439;50.948;6.988;2023-02-03T05:40:31;6.70;;;3.13;;
76574;SDS011;65439;50.948;6.988;2023-02-03T05:43:15;8.82;;;4.57;;
76574;SDS011;65439;50.948;6.988;2023-02-03T05:45:41;8.07;;;3.25;;
76574;SDS011;65439;50.948;6.988;2023-02-03T05:48:06;4.83;;;3.10;;
76574;SDS011;65439;50.948;6.988;2023-02-03T05:50:31;12.07;;;3.80;;
76574;SDS011;65439;50.948;6.988;2023-02-03T05:52:58;9.18;;;2.65;;
76574;SDS011;65439;50.948;6.988;2023-02-03T05:55:24;9.13;;;3.28;;
76574;SDS011;65439;50.948;6.988;2023-02-03T05:57:49;4.90;;;2.75;;
76574;SDS011;65439;50.948;6.988;2023-02-03T06:00:15;3.13;;;1.90;;
76574;SDS011;65439;50.948;6.988;2023-02-03T06:02:40;14.52;;;2.67;;
76574;SDS011;65439;50.948;6.988;2023-02-03T06:05:06;7.87;;;2.70;;
76574;SDS011;65439;50.948;6.988;2023-02-03T06:07:31;8.48;;;2.53;;
76574;SDS011;65439;50.948;6.988;2023-02-03T06:09:57;7.37;;;1.90;;
76574;SDS011;65439;50.948;6.988;2023-02-03T06:12:22;4.00;;;2.23;;
76574;SDS011;65439;50.948;6.988;2023-02-03T06:14:47;4.47;;;2.40;;
76574;SDS011;65439;50.948;6.988;2023-02-03T06:17:12;7.23;;;2.87;;
76574;SDS011;65439;50.948;6.988;2023-02-03T06:19:38;4.83;;;2.30;;
76574;SDS011;65439;50.948;6.988;2023-02-03T06:22:03;7.97;;;2.17;;
76574;SDS011;65439;50.948;6.988;2023-02-03T06:24:28;6.20;;;2.20;;
76574;SDS011;65439;50.948;6.988;2023-02-03T06:26:54;7.07;;;2.00;;
76574;SDS011;65439;50.948;6.988;2023-02-03T06:29:19;3.20;;;1.70;;
76574;SDS011;65439;50.948;6.988;2023-02-03T06:31:45;4.77;;;2.53;;
76574;SDS011;65439;50.948;6.988;2023-02-03T06:34:10;5.13;;;2.45;;
76574;SDS011;65439;50.948;6.988;2023-02-03T06:36:35;8.27;;;2.50;;
76574;SDS011;65439;50.948;6.988;2023-02-03T06:39:01;4.68;;;1.90;;
76574;SDS011;65439;50.948;6.988;2023-02-03T06:41:26;6.85;;;2.33;;
76574;SDS011;65439;50.948;6.988;2023-02-03T06:43:54;10.25;;;2.17;;
76574;SDS011;65439;50.948;6.988;2023-02-03T06:46:20;5.95;;;2.25;;
76574;SDS011;65439;50.948;6.988;2023-02-03T06:48:45;3.55;;;2.13;;
76574;SDS011;65439;50.948;6.988;2023-02-03T06:51:10;6.13;;;2.10;;
76574;SDS011;65439;50.948;6.988;2023-02-03T06:53:36;9.82;;;2.22;;
76574;SDS011;65439;50.948;6.988;2023-02-03T06:56:01;6.97;;;2.53;;
76574;SDS011;65439;50.948;6.988;2023-02-03T06:58:27;6.88;;;1.70;;
76574;SDS011;65439;50.948;6.988;2023-02-03T07:00:56;7.47;;;2.35;;
76574;SDS011;65439;50.948;6.988;2023-02-03T07:03:21;6.80;;;2.63;;
76574;SDS011;65439;50.948;6.988;2023-02-03T07:05:46;8.80;;;2.05;;
76574;SDS011;65439;50.948;6.988;2023-02-03T07:08:12;6.95;;;2.20;;
76574;SDS011;65439;50.948;6.988;2023-02-03T07:10:37;5.65;;;2.85;;
76574;SDS011;65439;50.948;6.988;2023-02-03T07:13:06;3.87;;;2.23;;
76574;SDS011;65439;50.948;6.988;2023-02-03T07:15:31;8.93;;;2.58;;
76574;SDS011;65439;50.948;6.988;2023-02-03T07:17:57;8.65;;;2.50;;
76574;SDS011;65439;50.948;6.988;2023-02-03T07:20:22;5.33;;;2.33;;
76574;SDS011;65439;50.948;6.988;2023-02-03T07:22:53;6.47;;;1.92;;
76574;SDS011;65439;50.948;6.988;2023-02-03T07:25:22;7.65;;;3.08;;
76574;SDS011;65439;50.948;6.988;2023-02-03T07:27:48;6.00;;;2.50;;
76574;SDS011;65439;50.948;6.988;2023-02-03T07:30:14;5.28;;;3.15;;
76574;SDS011;65439;50.948;6.988;2023-02-03T07:32:39;4.57;;;2.00;;
76574;SDS011;65439;50.948;6.988;2023-02-03T07:35:04;9.63;;;2.47;;
76574;SDS011;65439;50.948;6.988;2023-02-03T07:37:30;5.82;;;1.70;;
76574;SDS011;65439;50.948;6.988;2023-02-03T07:39:55;5.03;;;2.40;;
76574;SDS011;65439;50.948;6.988;2023-02-03T07:42:20;5.60;;;2.10;;
76574;SDS011;65439;50.948;6.988;2023-02-03T07:44:45;5.65;;;1.75;;
76574;SDS011;65439;50.948;6.988;2023-02-03T07:47:11;3.37;;;1.87;;
76574;SDS011;65439;50.948;6.988;2023-02-03T07:49:36;4.07;;;1.97;;
76574;SDS011;65439;50.948;6.988;2023-02-03T07:52:01;6.43;;;2.33;;
76574;SDS011;65439;50.948;6.988;2023-02-03T07:54:27;8.77;;;2.80;;
76574;SDS011;65439;50.948;6.988;2023-02-03T07:56:53;3.35;;;1.70;;
76574;SDS011;65439;50.948;6.988;2023-02-03T07:59:18;5.93;;;2.27;;
76574;SDS011;65439;50.948;6.988;2023-02-03T08:01:44;2.93;;;1.60;;
76574;SDS011;65439;50.948;6.988;2023-02-03T08:04:09;9.23;;;1.93;;
76574;SDS011;65439;50.948;6.988;2023-02-03T08:06:39;3.97;;;1.80;;
76574;SDS011;65439;50.948;6.988;2023-02-03T08:09:05;7.00;;;2.20;;
76574;SDS011;65439;50.948;6.988;2023-02-03T08:11:30;3.73;;;1.93;;
76574;SDS011;65439;50.948;6.988;2023-02-03T08:13:56;5.03;;;1.95;;
76574;SDS011;65439;50.948;6.988;2023-02-03T08:16:21;7.60;;;2.40;;
76574;SDS011;65439;50.948;6.988;2023-02-03T08:18:47;5.83;;;1.70;;
76574;SDS011;65439;50.948;6.988;2023-02-03T08:21:12;3.30;;;1.83;;
76574;SDS011;65439;50.948;6.988;2023-02-03T08:23:37;8.52;;;2.15;;
76574;SDS011;65439;50.948;6.988;2023-02-03T08:26:03;2.90;;;1.67;;
76574;SDS011;65439;50.948;6.988;2023-02-03T08:28:28;4.60;;;2.17;;
76574;SDS011;65439;50.948;6.988;2023-02-03T08:30:53;3.73;;;1.53;;
76574;SDS011;65439;50.948;6.988;2023-02-03T08:33:20;6.05;;;2.30;;
76574;SDS011;65439;50.948;6.988;2023-02-03T08:35:46;4.20;;;2.07;;
76574;SDS011;65439;50.948;6.988;2023-02-03T08:38:12;4.63;;;1.85;;
76574;SDS011;65439;50.948;6.988;2023-02-03T08:40:37;5.70;;;2.20;;
76574;SDS011;65439;50.948;6.988;2023-02-03T08:43:02;3.97;;;2.05;;
76574;SDS011;65439;50.948;6.988;2023-02-03T08:45:28;2.73;;;1.50;;
76574;SDS011;65439;50.948;6.988;2023-02-03T08:47:53;4.87;;;1.90;;
76574;SDS011;65439;50.948;6.988;2023-02-03T08:50:21;3.45;;;2.45;;
76574;SDS011;65439;50.948;6.988;2023-02-03T08:52:47;3.78;;;1.73;;
76574;SDS011;65439;50.948;6.988;2023-02-03T08:55:12;5.82;;;2.17;;
76574;SDS011;65439;50.948;6.988;2023-02-03T08:57:38;4.63;;;2.10;;
76574;SDS011;65439;50.948;6.988;2023-02-03T09:00:05;6.80;;;2.22;;
76574;SDS011;65439;50.948;6.988;2023-02-03T09:02:31;4.22;;;1.92;;
76574;SDS011;65439;50.948;6.988;2023-02-03T09:04:57;4.95;;;2.15;;
76574;SDS011;65439;50.948;6.988;2023-02-03T09:07:22;3.13;;;1.92;;
76574;SDS011;65439;50.948;6.988;2023-02-03T09:09:47;8.97;;;2.07;;
76574;SDS011;65439;50.948;6.988;2023-02-03T09:12:13;8.40;;;2.80;;
76574;SDS011;65439;50.948;6.988;2023-02-03T09:14:38;4.75;;;2.17;;
76574;SDS011;65439;50.948;6.988;2023-02-03T09:17:04;5.22;;;2.15;;
76574;SDS011;65439;50.948;6.988;2023-02-03T09:19:30;6.40;;;2.53;;
76574;SDS011;65439;50.948;6.988;2023-02-03T09:21:55;6.80;;;2.08;;
76574;SDS011;65439;50.948;6.988;2023-02-03T09:24:21;5.25;;;2.20;;
76574;SDS011;65439;50.948;6.988;2023-02-03T09:26:47;10.02;;;2.70;;
76574;SDS011;65439;50.948;6.988;2023-02-03T09:29:12;7.68;;;2.90;;
76574;SDS011;65439;50.948;6.988;2023-02-03T09:31:38;5.30;;;2.40;;
76574;SDS011;65439;50.948;6.988;2023-02-03T09:34:03;5.23;;;2.10;;
76574;SDS011;65439;50.948;6.988;2023-02-03T09:36:28;7.57;;;2.42;;
76574;SDS011;65439;50.948;6.988;2023-02-03T09:38:54;7.67;;;2.57;;
76574;SDS011;65439;50.948;6.988;2023-02-03T09:47:03;6.97;;;2.60;;
76574;SDS011;65439;50.948;6.988;2023-02-03T09:49:45;4.72;;;2.53;;
76574;SDS011;65439;50.948;6.988;2023-02-03T09:52:18;5.85;;;2.80;;
76574;SDS011;65439;50.948;6.988;2023-02-03T09:57:28;4.50;;;2.55;;
76574;SDS011;65439;50.948;6.988;2023-02-03T09:59:56;5.85;;;2.22;;
76574;SDS011;65439;50.948;6.988;2023-02-03T10:02:36;4.43;;;2.67;;
76574;SDS011;65439;50.948;6.988;2023-02-03T10:05:19;5.00;;;2.33;;
76574;SDS011;65439;50.948;6.988;2023-02-03T10:18:24;6.80;;;2.92;;
76574;SDS011;65439;50.948;6.988;2023-02-03T10:20:53;7.07;;;2.90;;
76574;SDS011;65439;50.948;6.988;2023-02-03T10:26:17;6.22;;;3.00;;
76574;SDS011;65439;50.948;6.988;2023-02-03T10:28:47;6.53;;;3.00;;
76574;SDS011;65439;50.948;6.988;2023-02-03T10:31:18;6.65;;;3.08;;
76574;SDS011;65439;50.948;6.988;2023-02-03T10:33:45;6.90;;;3.00;;
76574;SDS011;65439;50.948;6.988;2023-02-03T10:36:18;6.53;;;3.05;;
76574;SDS011;65439;50.948;6.988;2023-02-03T10:38:50;5.57;;;2.90;;
76574;SDS011;65439;50.948;6.988;2023-02-03T10:41:28;5.50;;;2.95;;
76574;SDS011;65439;50.948;6.988;2023-02-03T10:43:54;12.98;;;3.22;;
76574;SDS011;65439;50.948;6.988;2023-02-03T10:46:25;7.72;;;3.53;;
76574;SDS011;65439;50.948;6.988;2023-02-03T10:48:52;6.60;;;2.88;;
76574;SDS011;65439;50.948;6.988;2023-02-03T10:51:19;10.68;;;3.75;;
76574;SDS011;65439;50.948;6.988;2023-02-03T10:53:45;5.65;;;4.07;;
76574;SDS011;65439;50.948;6.988;2023-02-03T10:56:17;8.45;;;3.67;;
76574;SDS011;65439;50.948;6.988;2023-02-03T10:59:02;7.28;;;3.55;;
76574;SDS011;65439;50.948;6.988;2023-02-03T11:04:25;5.70;;;2.97;;
76574;SDS011;65439;50.948;6.988;2023-02-03T11:06:56;7.97;;;3.42;;
76574;SDS011;65439;50.948;6.988;2023-02-03T11:09:39;6.45;;;3.40;;
76574;SDS011;65439;50.948;6.988;2023-02-03T11:12:07;6.85;;;3.47;;
76574;SDS011;65439;50.948;6.988;2023-02-03T11:14:41;7.78;;;4.00;;
76574;SDS011;65439;50.948;6.988;2023-02-03T11:17:13;4.32;;;3.05;;
76574;SDS011;65439;50.948;6.988;2023-02-03T11:19:41;6.88;;;3.45;;
76574;SDS011;65439;50.948;6.988;2023-02-03T11:22:08;3.67;;;3.05;;
76574;SDS011;65439;50.948;6.988;2023-02-03T11:24:36;4.43;;;3.00;;
76574;SDS011;65439;50.948;6.988;2023-02-03T11:27:08;5.55;;;4.18;;
76574;SDS011;65439;50.948;6.988;2023-02-03T11:29:35;7.10;;;4.45;;
76574;SDS011;65439;50.948;6.988;2023-02-03T11:32:05;6.50;;;4.38;;
76574;SDS011;65439;50.948;6.988;2023-02-03T11:34:43;5.00;;;4.10;;
76574;SDS011;65439;50.948;6.988;2023-02-03T11:42:39;8.13;;;4.43;;
76574;SDS011;65439;50.948;6.988;2023-02-03T11:45:13;6.80;;;5.00;;
76574;SDS011;65439;50.948;6.988;2023-02-03T11:47:42;8.52;;;4.93;;
76574;SDS011;65439;50.948;6.988;2023-02-03T12:04:06;9.77;;;5.70;;
76574;SDS011;65439;50.948;6.988;2023-02-03T12:12:34;8.63;;;6.07;;
76574;SDS011;65439;50.948;6.988;2023-02-03T12:17:54;7.65;;;5.40;;
76574;SDS011;65439;50.948;6.988;2023-02-03T12:20:52;10.10;;;5.85;;
76574;SDS011;65439;50.948;6.988;2023-02-03T12:23:28;8.45;;;6.30;;
76574;SDS011;65439;50.948;6.988;2023-02-03T12:26:02;9.10;;;5.70;;
76574;SDS011;65439;50.948;6.988;2023-02-03T12:34:12;10.43;;;6.55;;
76574;SDS011;65439;50.948;6.988;2023-02-03T12:37:05;5.85;;;4.68;;
76574;SDS011;65439;50.948;6.988;2023-02-03T12:39:34;10.02;;;6.97;;
76574;SDS011;65439;50.948;6.988;2023-02-03T12:44:44;11.25;;;6.75;;
76574;SDS011;65439;50.948;6.988;2023-02-03T12:47:29;11.90;;;8.13;;
76574;SDS011;65439;50.948;6.988;2023-02-03T12:49:59;10.35;;;5.95;;
76574;SDS011;65439;50.948;6.988;2023-02-03T12:52:39;16.55;;;7.32;;
76574;SDS011;65439;50.948;6.988;2023-02-03T12:55:16;12.38;;;6.68;;
76574;SDS011;65439;50.948;6.988;2023-02-03T12:57:50;11.95;;;6.75;;
76574;SDS011;65439;50.948;6.988;2023-02-03T13:03:23;10.13;;;7.20;;
76574;SDS011;65439;50.948;6.988;2023-02-03T13:06:06;11.15;;;7.35;;
76574;SDS011;65439;50.948;6.988;2023-02-03T13:11:19;10.10;;;7.15;;
76574;SDS011;65439;50.948;6.988;2023-02-03T13:13:56;12.70;;;6.95;;
76574;SDS011;65439;50.948;6.988;2023-02-03T13:16:29;12.85;;;8.30;;
76574;SDS011;65439;50.948;6.988;2023-02-03T13:18:59;12.57;;;7.68;;
76574;SDS011;65439;50.948;6.988;2023-02-03T13:21:27;14.27;;;8.52;;
76574;SDS011;65439;50.948;6.988;2023-02-03T13:23:53;12.97;;;7.97;;
76574;SDS011;65439;50.948;6.988;2023-02-03T13:26:36;13.15;;;8.63;;
76574;SDS011;65439;50.948;6.988;2023-02-03T13:29:28;12.20;;;7.88;;
76574;SDS011;65439;50.948;6.988;2023-02-03T13:40:14;12.30;;;7.93;;
76574;SDS011;65439;50.948;6.988;2023-02-03T13:42:45;12.52;;;7.70;;
76574;SDS011;65439;50.948;6.988;2023-02-03T13:47:55;13.65;;;9.25;;
76574;SDS011;65439;50.948;6.988;2023-02-03T13:50:26;17.60;;;10.27;;
76574;SDS011;65439;50.948;6.988;2023-02-03T13:52:54;11.93;;;8.48;;
76574;SDS011;65439;50.948;6.988;2023-02-03T13:55:33;16.83;;;9.70;;
76574;SDS011;65439;50.948;6.988;2023-02-03T13:58:00;13.93;;;10.15;;
76574;SDS011;65439;50.948;6.988;2023-02-03T14:03:14;12.60;;;8.80;;
76574;SDS011;65439;50.948;6.988;2023-02-03T14:05:44;14.95;;;9.63;;
76574;SDS011;65439;50.948;6.988;2023-02-03T14:08:41;14.15;;;9.55;;
76574;SDS011;65439;50.948;6.988;2023-02-03T14:16:33;14.90;;;9.75;;
76574;SDS011;65439;50.948;6.988;2023-02-03T14:19:11;12.25;;;10.23;;
76574;SDS011;65439;50.948;6.988;2023-02-03T14:21:47;12.68;;;9.40;;
76574;SDS011;65439;50.948;6.988;2023-02-03T14:24:15;14.45;;;9.32;;
76574;SDS011;65439;50.948;6.988;2023-02-03T14:26:45;15.90;;;9.23;;
76574;SDS011;65439;50.948;6.988;2023-02-03T14:29:32;13.60;;;8.88;;
76574;SDS011;65439;50.948;6.988;2023-02-03T14:45:25;17.00;;;8.35;;
76574;SDS011;65439;50.948;6.988;2023-02-03T14:48:14;9.75;;;7.15;;
76574;SDS011;65439;50.948;6.988;2023-02-03T14:58:44;14.65;;;7.47;;
76574;SDS011;65439;50.948;6.988;2023-02-03T15:06:45;14.20;;;7.40;;
76574;SDS011;65439;50.948;6.988;2023-02-03T15:09:17;36.10;;;20.88;;
76574;SDS011;65439;50.948;6.988;2023-02-03T15:11:48;42.10;;;25.80;;
76574;SDS011;65439;50.948;6.988;2023-02-03T15:14:18;43.95;;;29.42;;
76574;SDS011;65439;50.948;6.988;2023-02-03T15:16:55;50.88;;;32.47;;
76574;SDS011;65439;50.948;6.988;2023-02-03T15:19:24;41.88;;;26.30;;
76574;SDS011;65439;50.948;6.988;2023-02-03T15:21:59;24.40;;;15.23;;
76574;SDS011;65439;50.948;6.988;2023-02-03T15:24:33;34.22;;;21.17;;
76574;SDS011;65439;50.948;6.988;2023-02-03T15:26:59;18.75;;;10.23;;
76574;SDS011;65439;50.948;6.988;2023-02-03T15:29:27;12.88;;;6.32;;
76574;SDS011;65439;50.948;6.988;2023-02-03T15:31:57;14.18;;;7.50;;
76574;SDS011;65439;50.948;6.988;2023-02-03T15:34:49;11.75;;;5.25;;
76574;SDS011;65439;50.948;6.988;2023-02-03T15:37:28;9.98;;;4.68;;
76574;SDS011;65439;50.948;6.988;2023-02-03T15:42:26;8.07;;;4.70;;
76574;SDS011;65439;50.948;6.988;2023-02-03T15:45:51;6.72;;;4.20;;
76574;SDS011;65439;50.948;6.988;2023-02-03T15:50:45;11.48;;;4.90;;
76574;SDS011;65439;50.948;6.988;2023-02-03T15:53:15;7.93;;;4.47;;
76574;SDS011;65439;50.948;6.988;2023-02-03T15:55:44;7.40;;;4.30;;
76574;SDS011;65439;50.948;6.988;2023-02-03T15:58:19;12.18;;;5.28;;
76574;SDS011;65439;50.948;6.988;2023-02-03T16:00:47;10.57;;;4.47;;
76574;SDS011;65439;50.948;6.988;2023-02-03T16:03:17;8.90;;;4.93;;
76574;SDS011;65439;50.948;6.988;2023-02-03T16:05:45;7.25;;;4.47;;
76574;SDS011;65439;50.948;6.988;2023-02-03T16:11:00;8.38;;;4.32;;
76574;SDS011;65439;50.948;6.988;2023-02-03T16:13:27;10.57;;;4.93;;
76574;SDS011;65439;50.948;6.988;2023-02-03T16:18:22;14.65;;;5.95;;
76574;SDS011;65439;50.948;6.988;2023-02-03T16:20:50;12.82;;;6.25;;
76574;SDS011;65439;50.948;6.988;2023-02-03T16:23:17;8.32;;;4.78;;
76574;SDS011;65439;50.948;6.988;2023-02-03T16:26:00;13.88;;;5.13;;
76574;SDS011;65439;50.948;6.988;2023-02-03T16:28:38;11.15;;;4.75;;
76574;SDS011;65439;50.948;6.988;2023-02-03T16:31:22;10.48;;;4.05;;
76574;SDS011;65439;50.948;6.988;2023-02-03T16:36:58;12.55;;;3.53;;
76574;SDS011;65439;50.948;6.988;2023-02-03T16:39:42;5.97;;;3.28;;
76574;SDS011;65439;50.948;6.988;2023-02-03T16:42:28;8.95;;;4.70;;
76574;SDS011;65439;50.948;6.988;2023-02-03T16:45:19;9.65;;;3.85;;
76574;SDS011;65439;50.948;6.988;2023-02-03T16:48:03;7.22;;;3.88;;
76574;SDS011;65439;50.948;6.988;2023-02-03T16:50:47;14.07;;;4.80;;
76574;SDS011;65439;50.948;6.988;2023-02-03T16:53:26;14.52;;;5.38;;
76574;SDS011;65439;50.948;6.988;2023-02-03T16:55:56;8.27;;;4.47;;
76574;SDS011;65439;50.948;6.988;2023-02-03T16:58:25;11.55;;;4.43;;
76574;SDS011;65439;50.948;6.988;2023-02-03T17:00:51;10.55;;;4.80;;
76574;SDS011;65439;50.948;6.988;2023-02-03T17:03:18;11.73;;;5.38;;
76574;SDS011;65439;50.948;6.988;2023-02-03T17:05:46;12.52;;;5.38;;
76574;SDS011;65439;50.948;6.988;2023-02-03T17:08:12;9.95;;;4.45;;
76574;SDS011;65439;50.948;6.988;2023-02-03T17:10:38;8.50;;;4.95;;
76574;SDS011;65439;50.948;6.988;2023-02-03T17:13:04;10.00;;;4.05;;
76574;SDS011;65439;50.948;6.988;2023-02-03T17:15:30;10.75;;;4.38;;
76574;SDS011;65439;50.948;6.988;2023-02-03T17:17:59;15.77;;;4.93;;
76574;SDS011;65439;50.948;6.988;2023-02-03T17:20:24;13.05;;;4.75;;